createdAt,value
2023-02-19T00:01:15.913Z,10.35
2023-02-19T00:03:43.425Z,9.23
2023-02-19T00:06:11.480Z,9.65
2023-02-19T00:08:39.682Z,11.85
2023-02-19T00:11:08.823Z,9.88
2023-02-19T00:13:37.096Z,10.70
2023-02-19T00:16:12.702Z,10.65
2023-02-19T00:18:39.309Z,11.23
2023-02-19T00:21:06.299Z,12.30
2023-02-19T00:23:33.115Z,8.77
2023-02-19T00:26:19.022Z,9.77
2023-02-19T00:28:49.648Z,10.85
2023-02-19T00:31:19.933Z,10.73
2023-02-19T00:33:47.398Z,9.60
2023-02-19T00:36:14.222Z,8.52
2023-02-19T00:38:42.424Z,10.93
2023-02-19T00:41:19.903Z,8.88
2023-02-19T00:43:48.185Z,9.98
2023-02-19T00:46:17.508Z,9.82
2023-02-19T00:48:44.452Z,8.38
2023-02-19T00:51:11.722Z,9.68
2023-02-19T00:53:39.008Z,8.80
2023-02-19T00:56:06.550Z,9.52
2023-02-19T00:58:33.748Z,9.75
2023-02-19T01:01:00.870Z,9.63
2023-02-19T01:03:27.814Z,9.93
2023-02-19T01:05:54.714Z,11.82
2023-02-19T01:08:22.043Z,12.63
2023-02-19T01:10:48.513Z,12.23
2023-02-19T01:13:15.264Z,10.77
2023-02-19T01:15:42.086Z,11.80
2023-02-19T01:18:08.821Z,10.50
2023-02-19T01:20:35.530Z,13.30
2023-02-19T01:23:02.097Z,12.90
2023-02-19T01:25:28.595Z,10.57
2023-02-19T01:27:55.271Z,13.70
2023-02-19T01:30:22.518Z,14.38
2023-02-19T01:32:49.074Z,15.75
2023-02-19T01:35:17.568Z,12.25
2023-02-19T01:37:44.003Z,12.00
2023-02-19T01:40:10.709Z,13.15
2023-02-19T01:42:37.221Z,12.85
2023-02-19T01:45:32.378Z,15.45
2023-02-19T01:48:04.864Z,14.23
2023-02-19T01:50:36.145Z,13.70
2023-02-19T01:53:07.385Z,13.65
2023-02-19T01:55:35.302Z,14.77
2023-02-19T01:58:02.901Z,15.75
2023-02-19T02:00:29.930Z,15.23
2023-02-19T02:02:58.025Z,14.38
2023-02-19T02:05:29.768Z,16.85
2023-02-19T02:08:15.732Z,13.60
2023-02-19T02:10:43.277Z,13.13
2023-02-19T02:13:09.989Z,16.48
2023-02-19T02:16:08.698Z,18.58
2023-02-19T02:18:49.926Z,18.48
2023-02-19T02:21:41.584Z,15.70
2023-02-19T02:24:41.760Z,15.52
2023-02-19T02:27:20.750Z,18.42
2023-02-19T02:30:13.529Z,17.02
2023-02-19T02:32:42.473Z,15.80
2023-02-19T02:35:13.333Z,22.05
2023-02-19T02:37:43.642Z,16.95
2023-02-19T02:40:12.034Z,16.35
2023-02-19T02:42:40.025Z,16.95
2023-02-19T02:45:35.407Z,20.38
2023-02-19T02:48:49.435Z,20.90
2023-02-19T02:51:24.982Z,22.38
2023-02-19T02:54:37.298Z,19.00
2023-02-19T02:57:15.077Z,21.30
2023-02-19T02:59:49.183Z,18.30
2023-02-19T03:02:26.017Z,21.90
2023-02-19T03:05:18.017Z,21.42
2023-02-19T03:08:17.118Z,22.58
2023-02-19T03:10:54.561Z,18.75
2023-02-19T03:13:50.944Z,19.80
2023-02-19T03:16:43.007Z,23.05
2023-02-19T03:19:20.159Z,18.27
2023-02-19T03:22:10.072Z,19.42
2023-02-19T03:25:01.681Z,20.17
2023-02-19T03:27:31.986Z,23.05
2023-02-19T03:30:04.404Z,19.00
2023-02-19T03:32:38.338Z,21.23
2023-02-19T03:35:27.354Z,21.63
2023-02-19T03:38:18.755Z,18.33
2023-02-19T03:41:18.896Z,21.52
2023-02-19T03:43:56.375Z,24.13
2023-02-19T03:46:35.428Z,20.52
2023-02-19T03:49:13.942Z,18.20
2023-02-19T03:51:46.006Z,21.92
2023-02-19T03:54:37.991Z,19.95
2023-02-19T03:57:14.158Z,21.65
2023-02-19T03:59:51.980Z,25.35
2023-02-19T04:02:28.252Z,24.02
2023-02-19T04:05:04.915Z,20.58
2023-02-19T04:07:36.972Z,21.10
2023-02-19T04:10:05.455Z,22.55
2023-02-19T04:12:33.944Z,18.67
2023-02-19T04:15:10.237Z,17.15
2023-02-19T04:20:10.052Z,22.50
2023-02-19T04:22:39.084Z,18.50
2023-02-19T04:25:06.188Z,17.30
2023-02-19T04:27:37.298Z,23.45
2023-02-19T04:30:06.234Z,18.90
2023-02-19T04:32:33.034Z,19.48
2023-02-19T04:34:59.710Z,25.25
2023-02-19T04:37:26.211Z,18.58
2023-02-19T04:39:52.724Z,18.58
2023-02-19T04:42:19.370Z,19.40
2023-02-19T04:44:46.090Z,18.50
2023-02-19T04:47:12.614Z,19.23
2023-02-19T04:49:39.149Z,18.88
2023-02-19T04:52:05.587Z,17.92
2023-02-19T04:54:32.012Z,22.48
2023-02-19T04:56:58.743Z,16.25
2023-02-19T04:59:25.637Z,19.23
2023-02-19T05:01:52.332Z,19.30
2023-02-19T05:04:18.907Z,21.08
2023-02-19T05:06:45.621Z,16.52
2023-02-19T05:09:12.156Z,19.27
2023-02-19T05:11:38.818Z,14.60
2023-02-19T05:14:05.524Z,18.35
2023-02-19T05:16:33.055Z,16.05
2023-02-19T05:18:59.596Z,15.13
2023-02-19T05:21:26.051Z,19.58
2023-02-19T05:23:52.499Z,15.32
2023-02-19T05:26:21.654Z,17.00
2023-02-19T05:28:50.580Z,15.32
2023-02-19T05:31:17.612Z,17.67
2023-02-19T05:33:45.897Z,15.45
2023-02-19T05:36:13.827Z,16.30
2023-02-19T05:38:41.226Z,14.73
2023-02-19T05:41:13.509Z,13.38
2023-02-19T05:43:41.473Z,16.52
2023-02-19T05:46:08.902Z,13.50
2023-02-19T05:48:35.469Z,14.52
2023-02-19T05:51:11.087Z,20.20
2023-02-19T05:53:38.701Z,12.05
2023-02-19T05:56:19.893Z,12.98
2023-02-19T05:58:46.515Z,15.65
2023-02-19T06:01:17.645Z,10.80
2023-02-19T06:03:44.222Z,13.70
2023-02-19T06:06:14.376Z,16.25
2023-02-19T06:08:40.959Z,19.83
2023-02-19T06:11:07.527Z,20.15
2023-02-19T06:13:34.441Z,19.67
2023-02-19T06:16:04.529Z,16.98
2023-02-19T06:18:31.090Z,16.33
2023-02-19T06:21:02.183Z,18.35
2023-02-19T06:23:29.710Z,16.75
2023-02-19T06:26:12.698Z,15.80
2023-02-19T06:28:40.966Z,18.70
2023-02-19T06:31:09.372Z,14.25
2023-02-19T06:33:40.511Z,17.90
2023-02-19T06:36:11.467Z,14.63
2023-02-19T06:38:38.189Z,16.42
2023-02-19T06:41:06.243Z,17.63
2023-02-19T06:43:33.853Z,12.32
2023-02-19T06:46:05.745Z,15.80
2023-02-19T06:48:32.910Z,19.80
2023-02-19T06:50:59.508Z,16.02
2023-02-19T06:53:26.524Z,17.35
2023-02-19T06:56:04.998Z,12.70
2023-02-19T06:58:32.308Z,14.73
2023-02-19T07:00:58.941Z,15.18
2023-02-19T07:03:26.481Z,15.93
2023-02-19T07:05:53.902Z,16.85
2023-02-19T07:08:20.643Z,14.88
2023-02-19T07:10:55.753Z,14.48
2023-02-19T07:13:23.170Z,14.80
2023-02-19T07:15:51.998Z,10.75
2023-02-19T07:18:19.327Z,19.73
2023-02-19T07:20:45.961Z,17.10
2023-02-19T07:23:12.362Z,13.40
2023-02-19T07:25:39.557Z,13.80
2023-02-19T07:28:07.528Z,15.63
2023-02-19T07:30:34.293Z,13.55
2023-02-19T07:33:00.989Z,16.27
2023-02-19T07:35:27.571Z,15.05
2023-02-19T07:37:55.439Z,16.27
2023-02-19T07:40:22.064Z,17.42
2023-02-19T07:42:48.702Z,13.07
2023-02-19T07:45:16.798Z,15.80
2023-02-19T07:47:44.116Z,15.23
2023-02-19T07:50:13.704Z,13.93
2023-02-19T07:52:40.459Z,14.40
2023-02-19T07:55:07.064Z,16.25
2023-02-19T07:57:33.756Z,13.27
2023-02-19T08:00:00.475Z,11.40
2023-02-19T08:02:45.727Z,14.25
2023-02-19T08:05:13.422Z,14.80
2023-02-19T08:07:40.686Z,20.40
2023-02-19T08:10:26.799Z,14.93
2023-02-19T08:13:17.258Z,18.02
2023-02-19T08:15:44.376Z,13.77
2023-02-19T08:18:11.900Z,15.57
2023-02-19T08:20:38.805Z,16.63
2023-02-19T08:23:06.148Z,9.77
2023-02-19T08:25:33.690Z,11.82
2023-02-19T08:28:00.960Z,11.43
2023-02-19T08:30:28.813Z,12.85
2023-02-19T08:32:56.180Z,19.05
2023-02-19T08:35:22.743Z,14.30
2023-02-19T08:37:49.258Z,11.95
2023-02-19T08:40:15.965Z,14.15
2023-02-19T08:42:42.833Z,13.55
2023-02-19T08:45:09.538Z,15.07
2023-02-19T08:47:36.486Z,12.25
2023-02-19T08:50:04.961Z,16.75
2023-02-19T08:52:32.041Z,13.90
2023-02-19T08:54:58.882Z,14.85
2023-02-19T08:57:26.510Z,12.25
2023-02-19T08:59:53.543Z,14.07
2023-02-19T09:02:20.121Z,13.07
2023-02-19T09:04:46.802Z,18.30
2023-02-19T09:07:13.642Z,13.05
2023-02-19T09:09:40.682Z,14.95
2023-02-19T09:12:09.551Z,17.48
2023-02-19T09:17:04.407Z,12.32
2023-02-19T09:19:31.451Z,15.60
2023-02-19T09:21:57.957Z,12.45
2023-02-19T09:24:25.281Z,13.73
2023-02-19T09:26:52.998Z,16.88
2023-02-19T09:29:20.493Z,13.93
2023-02-19T09:31:47.233Z,12.93
2023-02-19T09:34:13.879Z,12.88
2023-02-19T09:36:40.338Z,13.52
2023-02-19T09:39:08.780Z,14.52
2023-02-19T09:41:47.782Z,10.82
2023-02-19T09:44:23.753Z,8.90
2023-02-19T09:46:52.794Z,9.95
2023-02-19T09:49:21.411Z,10.10
2023-02-19T09:51:58.655Z,11.50
2023-02-19T09:54:27.770Z,7.75
2023-02-19T09:56:56.549Z,6.68
2023-02-19T10:02:04.450Z,6.88
2023-02-19T10:04:31.066Z,11.82
2023-02-19T10:07:03.268Z,13.93
2023-02-19T10:09:30.906Z,12.68
2023-02-19T10:11:58.898Z,13.32
2023-02-19T10:14:39.769Z,15.05
2023-02-19T10:17:11.007Z,9.23
2023-02-19T10:19:37.533Z,12.77
2023-02-19T10:22:04.682Z,14.05
2023-02-19T10:24:31.689Z,9.30
2023-02-19T10:26:58.137Z,14.13
2023-02-19T10:29:24.673Z,16.35
2023-02-19T10:32:23.766Z,14.23
2023-02-19T10:35:26.150Z,12.32
2023-02-19T10:37:52.952Z,9.93
2023-02-19T10:40:26.694Z,10.10
2023-02-19T10:42:59.172Z,13.80
2023-02-19T10:45:47.824Z,13.48
2023-02-19T10:48:24.758Z,15.63
2023-02-19T10:51:04.743Z,20.20
2023-02-19T10:53:44.196Z,15.98
2023-02-19T10:56:15.033Z,19.00
2023-02-19T10:58:44.780Z,17.13
2023-02-19T11:01:21.746Z,13.77
2023-02-19T11:04:09.575Z,12.30
2023-02-19T11:06:35.937Z,13.30
2023-02-19T11:09:02.364Z,10.07
2023-02-19T11:11:35.630Z,10.75
2023-02-19T11:14:24.896Z,11.30
2023-02-19T11:16:57.006Z,16.13
2023-02-19T11:19:43.699Z,15.65
2023-02-19T11:22:29.559Z,12.25
2023-02-19T11:24:59.557Z,15.45
2023-02-19T11:27:26.410Z,14.10
2023-02-19T11:29:52.799Z,15.13
2023-02-19T11:32:25.586Z,10.75
2023-02-19T11:35:04.414Z,11.93
2023-02-19T11:37:30.880Z,9.63
2023-02-19T11:39:57.275Z,9.95
2023-02-19T11:42:31.283Z,5.13
2023-02-19T11:45:17.085Z,6.43
2023-02-19T11:48:02.501Z,4.65
2023-02-19T11:50:42.772Z,4.03
2023-02-19T11:53:34.357Z,4.10
2023-02-19T11:56:20.750Z,3.72
2023-02-19T11:58:55.560Z,5.68
2023-02-19T12:01:51.129Z,5.65
2023-02-19T12:04:32.743Z,3.53
2023-02-19T12:07:29.629Z,45.50
2023-02-19T12:10:21.210Z,5.90
2023-02-19T12:13:11.008Z,5.95
2023-02-19T12:16:03.646Z,4.45
2023-02-19T12:19:01.457Z,4.75
2023-02-19T12:21:46.992Z,5.18
2023-02-19T12:24:33.088Z,3.80
2023-02-19T12:27:22.669Z,6.55
2023-02-19T12:30:19.934Z,5.65
2023-02-19T12:33:23.285Z,6.22
2023-02-19T12:36:01.926Z,4.18
2023-02-19T12:38:57.686Z,4.65
2023-02-19T12:41:41.041Z,4.80
2023-02-19T12:44:16.997Z,6.60
2023-02-19T12:46:49.074Z,12.35
2023-02-19T12:49:21.550Z,6.55
2023-02-19T12:52:17.006Z,6.07
2023-02-19T12:54:50.765Z,8.25
2023-02-19T12:57:22.915Z,10.65
2023-02-19T12:59:56.022Z,16.10
2023-02-19T13:02:28.233Z,14.98
2023-02-19T13:05:15.204Z,10.10
2023-02-19T13:07:44.370Z,23.13
2023-02-19T13:10:10.678Z,10.30
2023-02-19T13:12:42.023Z,6.90
2023-02-19T13:15:18.718Z,11.75
2023-02-19T13:17:55.331Z,10.15
2023-02-19T13:20:40.936Z,10.20
2023-02-19T13:23:31.858Z,11.23
2023-02-19T13:26:30.573Z,6.68
2023-02-19T13:29:01.736Z,7.03
2023-02-19T13:31:34.198Z,10.57
2023-02-19T13:34:21.981Z,7.43
2023-02-19T13:36:49.399Z,8.80
2023-02-19T13:39:19.534Z,7.85
2023-02-19T13:41:54.460Z,8.13
2023-02-19T13:44:25.384Z,11.80
2023-02-19T13:46:55.312Z,10.27
2023-02-19T13:49:28.071Z,12.05
2023-02-19T13:51:56.668Z,12.55
2023-02-19T13:54:26.731Z,24.75
2023-02-19T13:57:18.162Z,18.20
2023-02-19T13:59:46.242Z,8.90
2023-02-19T14:02:26.442Z,10.95
2023-02-19T14:05:00.062Z,6.90
2023-02-19T14:07:26.393Z,15.30
2023-02-19T14:09:53.470Z,14.43
2023-02-19T14:12:22.543Z,12.88
2023-02-19T14:14:56.404Z,12.60
2023-02-19T14:17:37.171Z,11.95
2023-02-19T14:20:44.782Z,9.38
2023-02-19T14:23:17.211Z,13.10
2023-02-19T14:26:04.146Z,17.25
2023-02-19T14:28:37.560Z,12.02
2023-02-19T14:31:34.317Z,11.70
2023-02-19T14:34:04.933Z,14.93
2023-02-19T14:37:01.053Z,11.65
2023-02-19T14:39:32.664Z,11.70
2023-02-19T14:42:02.878Z,13.80
2023-02-19T14:44:32.185Z,16.60
2023-02-19T14:47:09.295Z,16.50
2023-02-19T14:49:42.585Z,13.02
2023-02-19T14:52:30.517Z,15.40
2023-02-19T14:55:01.442Z,17.27
2023-02-19T14:57:35.666Z,20.77
2023-02-19T15:00:22.142Z,16.98
2023-02-19T15:02:53.042Z,19.08
2023-02-19T15:05:24.574Z,23.23
2023-02-19T15:07:53.574Z,18.55
2023-02-19T15:10:20.186Z,17.40
2023-02-19T15:12:53.381Z,14.02
2023-02-19T15:15:29.527Z,14.43
2023-02-19T15:17:57.935Z,14.93
2023-02-19T15:20:26.605Z,16.85
2023-02-19T15:22:55.067Z,14.40
2023-02-19T15:25:24.232Z,14.40
2023-02-19T15:27:50.853Z,11.38
2023-02-19T15:30:28.327Z,15.23
2023-02-19T15:32:59.727Z,11.23
2023-02-19T15:35:28.621Z,18.33
2023-02-19T15:37:55.392Z,12.70
2023-02-19T15:40:28.115Z,13.10
2023-02-19T15:42:54.693Z,10.60
2023-02-19T15:45:31.451Z,10.05
2023-02-19T15:48:00.822Z,7.85
2023-02-19T15:50:31.026Z,8.50
2023-02-19T15:53:04.464Z,9.48
2023-02-19T15:56:02.394Z,8.77
2023-02-19T15:58:42.567Z,11.68
2023-02-19T16:01:14.624Z,8.75
2023-02-19T16:03:41.927Z,5.88
2023-02-19T16:06:11.159Z,10.00
2023-02-19T16:08:39.498Z,7.55
2023-02-19T16:11:27.530Z,8.50
2023-02-19T16:14:33.005Z,12.60
2023-02-19T16:17:12.872Z,9.38
2023-02-19T16:19:58.436Z,8.23
2023-02-19T16:22:28.493Z,9.70
2023-02-19T16:24:58.213Z,16.63
2023-02-19T16:27:36.340Z,10.73
2023-02-19T16:30:34.011Z,8.27
2023-02-19T16:33:19.149Z,7.15
2023-02-19T16:35:47.947Z,3.53
2023-02-19T16:40:50.913Z,4.70
2023-02-19T16:43:31.284Z,6.82
2023-02-19T16:45:59.602Z,5.00
2023-02-19T16:48:26.333Z,4.35
2023-02-19T16:50:52.967Z,4.35
2023-02-19T16:53:28.782Z,4.68
2023-02-19T16:55:55.368Z,2.35
2023-02-19T16:58:21.836Z,3.40
2023-02-19T17:00:48.239Z,2.03
2023-02-19T17:03:18.796Z,5.22
2023-02-19T17:05:45.557Z,4.47
2023-02-19T17:08:34.615Z,4.05
2023-02-19T17:11:02.930Z,4.47
2023-02-19T17:13:30.944Z,6.72
2023-02-19T17:15:57.836Z,6.97
2023-02-19T17:18:24.508Z,5.57
2023-02-19T17:20:56.759Z,6.80
2023-02-19T17:23:24.532Z,6.47
2023-02-19T17:25:51.342Z,6.30
2023-02-19T17:28:17.930Z,7.32
2023-02-19T17:30:44.333Z,6.53
2023-02-19T17:33:10.680Z,7.15
2023-02-19T17:35:37.112Z,8.82
2023-02-19T17:38:09.359Z,8.32
2023-02-19T17:40:36.775Z,8.23
2023-02-19T17:43:03.177Z,8.05
2023-02-19T17:45:29.824Z,8.13
2023-02-19T17:47:56.204Z,7.55
2023-02-19T17:50:25.601Z,7.22
2023-02-19T17:52:51.944Z,7.70
2023-02-19T17:55:19.529Z,12.60
2023-02-19T17:57:47.095Z,7.88
2023-02-19T18:00:16.027Z,6.70
2023-02-19T18:02:42.493Z,6.32
2023-02-19T18:05:09.076Z,7.45
2023-02-19T18:07:36.030Z,6.75
2023-02-19T18:10:03.397Z,8.57
2023-02-19T18:12:29.768Z,5.85
2023-02-19T18:14:57.203Z,8.60
2023-02-19T18:17:24.426Z,8.40
2023-02-19T18:19:50.950Z,5.38
2023-02-19T18:22:17.418Z,6.22
2023-02-19T18:24:52.131Z,5.63
2023-02-19T18:27:20.214Z,5.85
2023-02-19T18:29:51.797Z,5.10
2023-02-19T18:32:19.517Z,5.32
2023-02-19T18:34:54.348Z,6.38
2023-02-19T18:37:22.468Z,7.53
2023-02-19T18:39:49.018Z,6.55
2023-02-19T18:42:15.828Z,7.43
2023-02-19T18:44:43.481Z,6.85
2023-02-19T18:47:11.384Z,19.98
2023-02-19T18:49:38.424Z,11.77
2023-02-19T18:52:05.001Z,7.38
2023-02-19T18:54:32.199Z,7.93
2023-02-19T18:57:00.541Z,8.65
2023-02-19T18:59:26.962Z,7.32
2023-02-19T19:01:53.363Z,7.90
2023-02-19T19:04:19.755Z,8.15
2023-02-19T19:06:46.143Z,8.93
2023-02-19T19:09:12.800Z,10.38
2023-02-19T19:11:39.278Z,8.27
2023-02-19T19:14:05.681Z,8.52
2023-02-19T19:16:32.063Z,7.15
2023-02-19T19:18:58.696Z,6.55
2023-02-19T19:21:25.313Z,7.03
2023-02-19T19:23:51.746Z,9.32
2023-02-19T19:26:18.187Z,7.63
2023-02-19T19:28:44.790Z,6.63
2023-02-19T19:31:12.611Z,6.53
2023-02-19T19:33:40.243Z,7.63
2023-02-19T19:36:07.501Z,6.20
2023-02-19T19:38:34.044Z,6.15
2023-02-19T19:41:00.734Z,4.55
2023-02-19T19:43:28.769Z,4.47
2023-02-19T19:45:56.029Z,6.05
2023-02-19T19:48:23.546Z,4.15
2023-02-19T19:50:50.375Z,3.97
2023-02-19T19:53:16.878Z,4.40
2023-02-19T19:55:43.265Z,4.30
2023-02-19T19:58:09.698Z,3.22
2023-02-19T20:00:36.079Z,6.72
2023-02-19T20:03:03.758Z,4.10
2023-02-19T20:05:30.205Z,4.68
2023-02-19T20:07:56.563Z,6.68
2023-02-19T20:10:23.001Z,3.70
2023-02-19T20:12:49.470Z,4.95
2023-02-19T20:15:21.703Z,3.53
2023-02-19T20:17:49.389Z,5.13
2023-02-19T20:20:17.939Z,3.72
2023-02-19T20:22:44.691Z,4.00
2023-02-19T20:25:11.343Z,4.35
2023-02-19T20:27:37.758Z,1.95
2023-02-19T20:30:05.985Z,1.85
2023-02-19T20:32:32.622Z,3.15
2023-02-19T20:34:59.007Z,3.22
2023-02-19T20:37:25.485Z,3.28
2023-02-19T20:39:52.091Z,3.17
2023-02-19T20:42:18.462Z,3.63
2023-02-19T20:44:45.081Z,3.17
2023-02-19T20:47:11.468Z,2.00
2023-02-19T20:49:37.812Z,2.75
2023-02-19T20:52:07.358Z,2.20
2023-02-19T20:54:35.239Z,4.03
2023-02-19T20:57:04.175Z,2.03
2023-02-19T20:59:35.200Z,3.83
2023-02-19T21:02:07.960Z,4.47
2023-02-19T21:04:37.329Z,3.22
2023-02-19T21:07:03.770Z,2.30
2023-02-19T21:09:30.302Z,1.90
2023-02-19T21:11:58.358Z,2.50
2023-02-19T21:14:26.478Z,6.18
2023-02-19T21:16:53.616Z,2.80
2023-02-19T21:19:21.433Z,4.57
2023-02-19T21:21:47.883Z,5.53
2023-02-19T21:24:15.570Z,2.88
2023-02-19T21:26:43.240Z,5.22
2023-02-19T21:29:13.824Z,3.85
2023-02-19T21:31:46.122Z,2.78
2023-02-19T21:34:15.118Z,2.38
2023-02-19T21:36:42.139Z,2.28
2023-02-19T21:39:10.102Z,1.98
2023-02-19T21:41:36.560Z,2.90
2023-02-19T21:44:03.476Z,2.35
2023-02-19T21:46:29.869Z,4.85
2023-02-19T21:48:56.647Z,2.67
2023-02-19T21:51:32.521Z,2.28
2023-02-19T21:53:59.031Z,2.63
2023-02-19T21:56:30.864Z,2.95
2023-02-19T21:58:57.812Z,4.15
2023-02-19T22:01:28.296Z,3.28
2023-02-19T22:03:54.939Z,3.83
2023-02-19T22:06:24.220Z,5.60
2023-02-19T22:08:50.585Z,5.13
2023-02-19T22:11:16.942Z,2.50
2023-02-19T22:13:43.568Z,2.05
2023-02-19T22:16:10.407Z,2.70
2023-02-19T22:18:37.072Z,1.40
2023-02-19T22:21:05.131Z,3.00
2023-02-19T22:23:31.582Z,3.78
2023-02-19T22:25:58.076Z,2.47
2023-02-19T22:28:24.430Z,1.67
2023-02-19T22:30:50.866Z,2.08
2023-02-19T22:33:17.379Z,1.80
2023-02-19T22:35:43.716Z,1.77
2023-02-19T22:38:10.144Z,1.92
2023-02-19T22:40:36.506Z,2.38
2023-02-19T22:43:02.878Z,3.83
2023-02-19T22:45:29.370Z,2.15
2023-02-19T22:47:56.184Z,2.28
2023-02-19T22:50:23.018Z,1.60
2023-02-19T22:52:50.089Z,1.92
2023-02-19T22:55:17.130Z,2.28
2023-02-19T22:57:43.498Z,1.88
2023-02-19T23:00:15.960Z,1.40
2023-02-19T23:02:42.353Z,4.97
2023-02-19T23:05:08.699Z,2.53
2023-02-19T23:07:35.073Z,5.22
2023-02-19T23:10:01.434Z,2.20
2023-02-19T23:12:27.796Z,2.75
2023-02-19T23:14:54.158Z,3.33
2023-02-19T23:17:20.551Z,2.78
2023-02-19T23:19:47.533Z,2.80
2023-02-19T23:22:14.104Z,3.97
2023-02-19T23:24:40.444Z,3.15
2023-02-19T23:27:06.874Z,2.40
2023-02-19T23:29:33.224Z,3.70
2023-02-19T23:32:00.251Z,3.42
2023-02-19T23:34:26.708Z,3.60
2023-02-19T23:36:54.198Z,3.10
2023-02-19T23:39:21.716Z,6.35
2023-02-19T23:41:56.409Z,6.47
2023-02-19T23:44:24.622Z,7.03
2023-02-19T23:46:51.975Z,5.13
2023-02-19T23:49:19.214Z,6.03
2023-02-19T23:51:46.086Z,5.32
2023-02-19T23:54:12.804Z,6.07
2023-02-19T23:56:39.310Z,6.78
2023-02-19T23:59:05.974Z,7.32
